Terminal Aerodrome Forecast
Issued by NWS Melbourne, FL

Home | Current Version | Previous Version | Text Only | Print | Product List | Glossary On
Versions: 1 2 3 4 5 6 7 8 9 10 11 12 13 14 15 16 17 18 19 20 21 22
000
FTUS42 KMLB 231400 AAA
TAFMLB
TAF AMD
KMLB 231459Z 2315/2412 07010KT P6SM SCT040
     FM240000 04009KT P6SM FEW030 SCT250
     FM240600 03009KT P6SM FEW250=

USA.gov is the U.S. government's official web portal to all federal, state and local government web resources and services.